createdAt,value
2018-02-08T00:01:11.428Z,26.57
2018-02-08T00:03:40.283Z,27.07
2018-02-08T00:06:09.136Z,27.97
2018-02-08T00:08:38.766Z,26.87
2018-02-08T00:11:08.275Z,28.43
2018-02-08T00:13:37.132Z,27.27
2018-02-08T00:16:06.735Z,27.00
2018-02-08T00:18:36.379Z,27.90
2018-02-08T00:21:05.255Z,28.80
2018-02-08T00:23:34.108Z,28.63
2018-02-08T00:26:02.962Z,25.83
2018-02-08T00:28:31.847Z,28.50
2018-02-08T00:31:00.702Z,28.80
2018-02-08T00:33:30.334Z,30.23
2018-02-08T00:35:59.203Z,28.00
2018-02-08T00:38:28.824Z,30.50
2018-02-08T00:40:57.684Z,29.27
2018-02-08T00:43:27.311Z,26.73
2018-02-08T00:45:56.947Z,28.30
2018-02-08T00:48:25.787Z,29.20
2018-02-08T00:50:55.406Z,31.10
2018-02-08T00:53:24.509Z,29.80
2018-02-08T00:55:53.314Z,28.50
2018-02-08T00:58:22.207Z,32.40
2018-02-08T01:00:51.065Z,33.47
2018-02-08T01:03:20.668Z,30.30
2018-02-08T01:05:50.303Z,30.30
2018-02-08T01:08:19.502Z,29.90
2018-02-08T01:10:48.358Z,32.60
2018-02-08T01:13:17.998Z,33.20
2018-02-08T01:15:46.854Z,31.80
2018-02-08T01:18:16.494Z,33.07
2018-02-08T01:20:45.340Z,31.53
2018-02-08T01:23:14.182Z,30.43
2018-02-08T01:25:43.034Z,31.10
2018-02-08T01:28:12.633Z,32.17
2018-02-08T01:30:42.281Z,30.07
2018-02-08T01:33:11.119Z,30.43
2018-02-08T01:35:39.997Z,31.73
2018-02-08T01:38:09.601Z,31.50
2018-02-08T01:40:39.218Z,29.07
2018-02-08T01:43:08.821Z,29.80
2018-02-08T01:45:38.450Z,30.77
2018-02-08T01:48:07.296Z,30.77
2018-02-08T01:50:36.134Z,31.60
2018-02-08T01:53:04.985Z,34.03
2018-02-08T01:55:34.625Z,31.43
2018-02-08T01:58:03.468Z,32.03
2018-02-08T02:00:32.337Z,32.23
2018-02-08T02:03:01.194Z,33.17
2018-02-08T02:05:30.037Z,31.30
2018-02-08T02:07:58.883Z,34.10
2018-02-08T02:10:27.718Z,31.63
2018-02-08T02:12:56.565Z,33.40
2018-02-08T02:15:25.392Z,32.43
2018-02-08T02:17:55.370Z,31.27
2018-02-08T02:20:24.221Z,33.93
2018-02-08T02:22:53.855Z,32.37
2018-02-08T02:25:22.695Z,35.37
2018-02-08T02:27:51.554Z,35.17
2018-02-08T02:30:20.386Z,33.10
2018-02-08T02:32:50.017Z,33.77
2018-02-08T02:35:18.865Z,34.83
2018-02-08T02:37:47.702Z,35.70
2018-02-08T02:40:16.545Z,34.77
2018-02-08T02:42:45.390Z,32.93
2018-02-08T02:45:15.036Z,33.17
2018-02-08T02:47:43.870Z,33.37
2018-02-08T02:50:12.733Z,36.40
2018-02-08T02:52:41.579Z,34.70
2018-02-08T02:55:11.207Z,35.03
2018-02-08T02:57:40.045Z,33.87
2018-02-08T03:00:08.911Z,36.53
2018-02-08T03:02:37.745Z,36.13
2018-02-08T03:05:07.878Z,34.30
2018-02-08T03:07:36.902Z,36.30
2018-02-08T03:10:06.509Z,34.80
2018-02-08T03:12:35.338Z,33.23
2018-02-08T03:15:04.194Z,32.40
2018-02-08T03:17:33.061Z,33.43
2018-02-08T03:20:01.919Z,35.10
2018-02-08T03:22:31.537Z,33.30
2018-02-08T03:25:00.401Z,33.50
2018-02-08T03:27:29.767Z,35.40
2018-02-08T03:29:58.630Z,33.20
2018-02-08T03:32:28.248Z,35.27
2018-02-08T03:34:57.101Z,32.30
2018-02-08T03:37:26.001Z,35.07
2018-02-08T03:39:54.797Z,32.00
2018-02-08T03:42:23.655Z,34.70
2018-02-08T03:44:52.498Z,34.47
2018-02-08T03:47:22.137Z,35.17
2018-02-08T03:49:50.994Z,33.67
2018-02-08T03:52:20.609Z,32.10
2018-02-08T03:54:49.496Z,34.40
2018-02-08T03:57:19.125Z,36.50
2018-02-08T03:59:48.737Z,32.60
2018-02-08T04:02:18.445Z,34.40
2018-02-08T04:04:47.289Z,34.93
2018-02-08T04:07:16.127Z,33.27
2018-02-08T04:09:44.986Z,32.37
2018-02-08T04:12:14.594Z,33.60
2018-02-08T04:14:44.229Z,33.20
2018-02-08T04:17:13.063Z,31.03
2018-02-08T04:19:42.110Z,31.47
2018-02-08T04:22:10.963Z,33.37
2018-02-08T04:24:40.630Z,33.43
2018-02-08T04:27:09.462Z,33.40
2018-02-08T04:29:39.085Z,32.70
2018-02-08T04:32:08.683Z,33.93
2018-02-08T04:34:37.673Z,32.60
2018-02-08T04:37:06.516Z,31.97
2018-02-08T04:39:47.259Z,32.53
2018-02-08T04:42:28.709Z,32.37
2018-02-08T04:45:09.231Z,33.63
2018-02-08T04:50:38.644Z,32.40
2018-02-08T04:53:07.486Z,35.37
2018-02-08T04:55:36.340Z,36.43
2018-02-08T04:58:05.205Z,36.63
2018-02-08T05:00:34.055Z,33.20
2018-02-08T05:03:02.893Z,32.63
2018-02-08T05:05:31.735Z,33.07
2018-02-08T05:08:00.585Z,35.77
2018-02-08T05:10:29.442Z,33.50
2018-02-08T05:12:59.083Z,35.93
2018-02-08T05:15:27.930Z,36.43
2018-02-08T05:17:57.541Z,35.90
2018-02-08T05:20:27.173Z,34.03
2018-02-08T05:22:56.042Z,35.80
2018-02-08T05:25:25.668Z,36.20
2018-02-08T05:27:54.525Z,35.27
2018-02-08T05:30:24.123Z,33.80
2018-02-08T05:32:52.957Z,33.90
2018-02-08T05:35:21.822Z,35.17
2018-02-08T05:37:51.431Z,33.73
2018-02-08T05:40:21.050Z,35.87
2018-02-08T05:42:50.681Z,34.37
2018-02-08T05:45:19.527Z,35.00
2018-02-08T05:47:48.381Z,34.83
2018-02-08T05:50:17.246Z,36.70
2018-02-08T05:52:46.081Z,35.10
2018-02-08T05:55:14.929Z,34.23
2018-02-08T05:57:43.813Z,44.90
2018-02-08T06:00:12.684Z,36.67
2018-02-08T06:02:42.290Z,33.70
2018-02-08T06:05:11.929Z,34.83
2018-02-08T06:07:41.534Z,35.20
2018-02-08T06:10:10.375Z,36.63
2018-02-08T06:12:39.215Z,34.87
2018-02-08T06:15:08.050Z,38.80
2018-02-08T06:17:36.933Z,37.37
2018-02-08T06:20:05.772Z,41.30
2018-02-08T06:22:34.642Z,37.60
2018-02-08T06:25:04.253Z,37.03
2018-02-08T06:27:33.128Z,36.40
2018-02-08T06:30:01.959Z,33.73
2018-02-08T06:32:30.822Z,34.20
2018-02-08T06:34:59.682Z,36.57
2018-02-08T06:37:28.533Z,35.50
2018-02-08T06:39:57.389Z,35.87
2018-02-08T06:42:27.759Z,36.53
2018-02-08T06:44:56.604Z,34.67
2018-02-08T06:47:25.483Z,40.30
2018-02-08T06:49:54.332Z,36.83
2018-02-08T06:52:23.178Z,37.40
2018-02-08T06:54:52.014Z,35.97
2018-02-08T06:57:20.869Z,36.43
2018-02-08T06:59:50.480Z,39.07
2018-02-08T07:02:20.105Z,36.30
2018-02-08T07:04:48.962Z,37.80
2018-02-08T07:07:17.790Z,35.23
2018-02-08T07:09:46.666Z,34.37
2018-02-08T07:12:15.522Z,36.37
2018-02-08T07:14:44.375Z,36.50
2018-02-08T07:17:13.221Z,37.40
2018-02-08T07:19:42.969Z,39.53
2018-02-08T07:22:11.824Z,38.37
2018-02-08T07:24:41.452Z,38.10
2018-02-08T07:27:10.625Z,37.90
2018-02-08T07:29:40.234Z,35.50
2018-02-08T07:32:09.985Z,37.13
2018-02-08T07:34:38.817Z,38.60
2018-02-08T07:37:08.447Z,38.93
2018-02-08T07:39:38.178Z,38.93
2018-02-08T07:42:07.033Z,37.60
2018-02-08T07:44:35.904Z,38.07
2018-02-08T07:47:04.771Z,39.40
2018-02-08T07:49:34.163Z,40.83
2018-02-08T07:52:03.770Z,39.43
2018-02-08T07:54:32.636Z,42.37
2018-02-08T07:57:01.486Z,41.30
2018-02-08T07:59:30.349Z,41.53
2018-02-08T08:01:59.964Z,44.77
2018-02-08T08:04:28.829Z,44.10
2018-02-08T08:06:57.679Z,41.77
2018-02-08T08:09:26.529Z,39.40
2018-02-08T08:11:56.126Z,39.57
2018-02-08T08:14:25.758Z,41.57
2018-02-08T08:16:54.606Z,40.47
2018-02-08T08:19:23.485Z,39.50
2018-02-08T08:21:52.330Z,39.80
2018-02-08T08:24:22.000Z,40.03
2018-02-08T08:26:51.668Z,42.00
2018-02-08T08:29:20.508Z,41.57
2018-02-08T08:31:50.124Z,40.57
2018-02-08T08:34:19.746Z,40.70
2018-02-08T08:36:48.612Z,41.47
2018-02-08T08:39:17.465Z,45.53
2018-02-08T08:41:47.078Z,44.63
2018-02-08T08:44:16.689Z,43.23
2018-02-08T08:46:46.065Z,45.03
2018-02-08T08:49:14.902Z,43.00
2018-02-08T08:51:43.995Z,44.90
2018-02-08T08:54:12.833Z,42.40
2018-02-08T08:56:41.680Z,39.07
2018-02-08T08:59:10.519Z,41.00
2018-02-08T09:01:39.402Z,38.83
2018-02-08T09:04:08.242Z,38.70
2018-02-08T09:06:37.416Z,39.93
2018-02-08T09:09:06.230Z,39.30
2018-02-08T09:11:35.050Z,38.67
2018-02-08T09:14:03.884Z,38.70
2018-02-08T09:16:33.485Z,40.10
2018-02-08T09:19:03.117Z,38.87
2018-02-08T09:21:31.978Z,39.23
2018-02-08T09:24:01.219Z,43.27
2018-02-08T09:26:31.030Z,39.10
2018-02-08T09:28:59.861Z,38.63
2018-02-08T09:31:28.714Z,37.70
2018-02-08T09:33:57.570Z,35.87
2018-02-08T09:36:27.197Z,36.60
2018-02-08T09:38:56.141Z,41.67
2018-02-08T09:41:25.001Z,39.80
2018-02-08T09:43:54.601Z,40.07
2018-02-08T09:46:24.283Z,41.33
2018-02-08T09:48:53.117Z,38.63
2018-02-08T09:51:22.012Z,40.23
2018-02-08T09:53:50.854Z,40.53
2018-02-08T09:56:20.615Z,38.30
2018-02-08T09:58:49.466Z,38.57
2018-02-08T10:01:19.344Z,37.70
2018-02-08T10:03:49.439Z,39.13
2018-02-08T10:06:18.269Z,37.93
2018-02-08T10:08:47.128Z,38.00
2018-02-08T10:11:15.961Z,37.90
2018-02-08T10:13:44.809Z,37.47
2018-02-08T10:16:13.666Z,40.17
2018-02-08T10:18:43.275Z,41.00
2018-02-08T10:21:12.130Z,38.53
2018-02-08T10:23:40.997Z,38.87
2018-02-08T10:26:09.832Z,38.43
2018-02-08T10:28:39.636Z,36.03
2018-02-08T10:31:08.436Z,39.20
2018-02-08T10:33:38.050Z,38.93
2018-02-08T10:36:06.912Z,36.63
2018-02-08T10:38:35.914Z,39.23
2018-02-08T10:41:04.753Z,36.43
2018-02-08T10:43:33.611Z,39.83
2018-02-08T10:46:02.449Z,40.50
2018-02-08T10:48:31.317Z,41.60
2018-02-08T10:51:00.922Z,39.53
2018-02-08T10:53:30.546Z,40.73
2018-02-08T10:55:59.390Z,49.20
2018-02-08T10:58:28.240Z,41.70
2018-02-08T11:00:57.095Z,41.70
2018-02-08T11:03:25.975Z,41.50
2018-02-08T11:05:54.888Z,37.90
2018-02-08T11:08:24.502Z,37.67
2018-02-08T11:10:53.369Z,40.10
2018-02-08T11:13:22.970Z,39.20
2018-02-08T11:15:52.606Z,39.23
2018-02-08T11:18:21.762Z,38.13
2018-02-08T11:20:50.663Z,37.73
2018-02-08T11:23:20.278Z,38.73
2018-02-08T11:25:49.909Z,35.63
2018-02-08T11:28:18.754Z,34.23
2018-02-08T11:30:47.623Z,35.83
2018-02-08T11:33:16.497Z,34.03
2018-02-08T11:35:45.335Z,34.73
2018-02-08T11:38:14.958Z,35.37
2018-02-08T11:40:44.305Z,36.10
2018-02-08T11:43:13.173Z,39.00
2018-02-08T11:45:42.087Z,42.27
2018-02-08T11:48:10.942Z,36.80
2018-02-08T11:50:39.803Z,38.77
2018-02-08T11:53:09.397Z,42.30
2018-02-08T11:55:39.026Z,42.33
2018-02-08T11:58:07.894Z,37.27
2018-02-08T12:00:37.523Z,42.30
2018-02-08T12:03:06.898Z,37.33
2018-02-08T12:05:36.514Z,38.07
2018-02-08T12:08:06.155Z,44.60
2018-02-08T12:10:35.019Z,36.50
2018-02-08T12:13:04.635Z,40.37
2018-02-08T12:15:33.502Z,47.40
2018-02-08T12:18:03.113Z,41.20
2018-02-08T12:20:31.982Z,36.90
2018-02-08T12:23:00.835Z,40.73
2018-02-08T12:25:29.720Z,39.00
2018-02-08T12:27:58.589Z,40.90
2018-02-08T12:30:28.207Z,41.20
2018-02-08T12:32:57.100Z,40.70
2018-02-08T12:35:25.953Z,42.20
2018-02-08T12:37:55.586Z,41.57
2018-02-08T12:40:24.431Z,40.77
2018-02-08T12:42:53.283Z,40.57
2018-02-08T12:45:22.134Z,42.40
2018-02-08T12:47:50.941Z,39.90
2018-02-08T13:23:20.517Z,36.27
2018-02-08T13:25:50.128Z,34.83
2018-02-08T13:28:19.758Z,35.23
2018-02-08T13:30:48.603Z,33.37
2018-02-08T13:33:18.634Z,34.17
2018-02-08T13:35:48.252Z,33.70
2018-02-08T13:38:17.097Z,33.10
2018-02-08T13:40:48.502Z,34.77
2018-02-08T13:43:17.342Z,33.60
2018-02-08T13:45:46.207Z,32.37
2018-02-08T13:48:31.638Z,33.53
2018-02-08T13:51:06.005Z,33.33
2018-02-08T13:57:01.910Z,31.60
2018-02-08T13:59:36.290Z,31.77
2018-02-08T14:02:06.627Z,32.30
2018-02-08T14:04:35.880Z,33.37
2018-02-08T14:07:05.803Z,30.30
2018-02-08T14:09:35.413Z,32.37
2018-02-08T14:12:05.018Z,30.20
2018-02-08T14:14:34.629Z,30.57
2018-02-08T14:17:04.269Z,30.13
2018-02-08T14:19:33.101Z,30.00
2018-02-08T14:22:01.963Z,33.27
2018-02-08T14:24:30.818Z,32.07
2018-02-08T14:26:59.649Z,29.90
2018-02-08T14:29:28.513Z,33.20
2018-02-08T14:31:57.386Z,32.70
2018-02-08T14:34:27.007Z,32.07
2018-02-08T14:36:55.873Z,31.50
2018-02-08T14:39:25.498Z,31.00
2018-02-08T14:41:54.341Z,31.37
2018-02-08T14:44:23.190Z,32.33
2018-02-08T14:46:52.026Z,32.70
2018-02-08T14:49:21.661Z,28.43
2018-02-08T14:51:50.850Z,28.93
2018-02-08T14:54:20.477Z,34.27
2018-02-08T14:56:49.305Z,27.50
2018-02-08T14:59:18.170Z,27.67
2018-02-08T15:01:47.005Z,30.20
2018-02-08T15:04:16.674Z,28.67
2018-02-08T15:06:46.229Z,31.00
2018-02-08T15:09:15.909Z,29.00
2018-02-08T15:11:44.753Z,28.50
2018-02-08T15:14:13.598Z,30.60
2018-02-08T15:16:43.264Z,29.00
2018-02-08T15:19:12.137Z,27.47
2018-02-08T15:21:41.011Z,25.97
2018-02-08T15:24:10.599Z,26.73
2018-02-08T15:26:40.230Z,27.37
2018-02-08T15:29:09.116Z,26.67
2018-02-08T15:31:37.950Z,27.47
2018-02-08T15:34:06.806Z,28.10
2018-02-08T15:36:35.670Z,27.87
2018-02-08T15:39:05.270Z,25.77
2018-02-08T15:41:34.909Z,28.10
2018-02-08T15:44:05.481Z,27.70
2018-02-08T15:46:35.833Z,26.57
2018-02-08T15:49:04.714Z,26.97
2018-02-08T15:51:33.561Z,26.27
2018-02-08T16:40:37.868Z,32.80
2018-02-08T16:43:06.842Z,33.77
2018-02-08T16:45:36.484Z,33.47
2018-02-08T16:48:05.339Z,30.60
2018-02-08T16:50:34.946Z,35.17
2018-02-08T16:53:04.616Z,33.50
2018-02-08T16:55:33.473Z,36.50
2018-02-08T16:58:03.092Z,36.77
2018-02-08T17:00:31.939Z,36.73
2018-02-08T17:03:01.542Z,36.03
2018-02-08T17:05:30.400Z,38.47
2018-02-08T17:07:59.232Z,39.80
2018-02-08T17:10:28.876Z,39.87
2018-02-08T17:12:57.733Z,40.03
2018-02-08T17:15:27.333Z,40.00
2018-02-08T17:17:56.948Z,39.83
2018-02-08T17:20:26.561Z,38.17
2018-02-08T17:22:56.194Z,43.87
2018-02-08T17:25:25.805Z,44.60
2018-02-08T17:27:54.670Z,45.17
2018-02-08T17:30:23.548Z,45.00
2018-02-08T17:32:53.184Z,43.17
2018-02-08T17:35:22.060Z,41.23
2018-02-08T17:37:50.971Z,46.10
2018-02-08T17:40:21.604Z,44.17
2018-02-08T17:42:50.440Z,44.70
2018-02-08T17:45:19.650Z,49.33
2018-02-08T17:47:49.216Z,48.10
2018-02-08T17:50:18.068Z,51.80
2018-02-08T17:52:46.921Z,59.83
2018-02-08T17:55:16.804Z,54.70
2018-02-08T17:57:45.669Z,51.00
2018-02-08T18:00:15.418Z,56.43
2018-02-08T18:02:44.261Z,57.13
2018-02-08T18:05:13.887Z,56.27
2018-02-08T18:07:45.948Z,53.87
2018-02-08T18:10:20.163Z,51.40
2018-02-08T18:12:54.667Z,54.17
2018-02-08T18:18:07.636Z,47.30
2018-02-08T18:33:37.874Z,45.23
2018-02-08T18:39:04.766Z,45.43
2018-02-08T19:28:41.245Z,49.53
2018-02-08T19:31:11.347Z,47.70
2018-02-08T19:34:01.814Z,49.60
2018-02-08T19:52:11.707Z,47.83
2018-02-08T19:54:40.605Z,45.60
2018-02-08T19:57:10.808Z,47.07
2018-02-08T19:59:42.510Z,47.07
2018-02-08T20:02:11.605Z,45.47
2018-02-08T20:04:45.239Z,46.43
2018-02-08T20:07:15.793Z,44.87
2018-02-08T20:09:45.297Z,47.87
2018-02-08T20:12:14.148Z,46.13
2018-02-08T20:14:44.391Z,48.03
2018-02-08T20:17:13.257Z,46.70
2018-02-08T20:19:42.160Z,49.10
2018-02-08T20:22:13.073Z,44.67
2018-02-08T20:24:42.944Z,46.50
2018-02-08T20:27:11.949Z,46.97
2018-02-08T20:29:41.249Z,44.90
2018-02-08T20:32:10.476Z,45.93
2018-02-08T20:34:40.092Z,47.80
2018-02-08T20:37:15.065Z,48.80
2018-02-08T20:39:44.788Z,46.30
2018-02-08T20:45:20.280Z,46.47
2018-02-08T20:47:49.892Z,45.00
2018-02-08T20:50:20.204Z,44.43
2018-02-08T20:52:49.025Z,46.63
2018-02-08T20:55:17.882Z,42.77
2018-02-08T20:57:47.521Z,43.50
2018-02-08T21:00:16.478Z,42.10
2018-02-08T21:02:46.124Z,43.60
2018-02-08T21:05:14.969Z,43.17
2018-02-08T21:17:28.850Z,47.53
2018-02-08T21:19:57.845Z,45.60
2018-02-08T21:22:26.714Z,47.80
2018-02-08T21:24:55.903Z,49.30
2018-02-08T21:27:24.765Z,48.47
2018-02-08T21:29:53.610Z,46.70
2018-02-08T21:32:22.504Z,47.40
2018-02-08T21:34:51.370Z,48.50
2018-02-08T21:37:20.978Z,49.10
2018-02-08T21:39:49.866Z,47.37
2018-02-08T21:42:19.529Z,48.23
2018-02-08T21:44:48.398Z,47.87
2018-02-08T21:47:17.275Z,47.00
2018-02-08T21:49:46.908Z,47.40
2018-02-08T21:52:15.765Z,45.73
2018-02-08T21:54:44.626Z,46.67
2018-02-08T21:57:13.823Z,45.10
2018-02-08T21:59:43.040Z,46.30
2018-02-08T22:02:11.917Z,45.70
2018-02-08T22:04:40.757Z,48.10
2018-02-08T22:07:09.607Z,47.40
2018-02-08T22:09:39.235Z,44.67
2018-02-08T22:12:08.075Z,46.07
2018-02-08T22:14:36.989Z,48.73
2018-02-08T22:17:05.794Z,47.40
2018-02-08T22:19:34.665Z,49.50
2018-02-08T22:22:03.517Z,53.40
2018-02-08T22:24:33.165Z,49.50
2018-02-08T22:27:02.048Z,50.50
2018-02-08T22:29:31.670Z,50.57
2018-02-08T22:32:00.530Z,48.30
2018-02-08T22:34:30.158Z,49.87
2018-02-08T22:36:59.769Z,48.63
2018-02-08T22:39:28.626Z,48.27
2018-02-08T22:41:58.265Z,51.17
2018-02-08T22:44:27.153Z,47.27
2018-02-08T22:46:56.017Z,46.17
2018-02-08T22:49:25.624Z,47.30
2018-02-08T22:51:55.255Z,47.27
2018-02-08T22:54:24.147Z,48.57
2018-02-08T22:56:53.024Z,49.10
2018-02-08T22:59:22.646Z,51.50
2018-02-08T23:01:51.501Z,45.63
2018-02-08T23:04:21.097Z,47.13
2018-02-08T23:06:50.742Z,47.80
2018-02-08T23:09:19.589Z,47.00
2018-02-08T23:11:48.449Z,47.33
2018-02-08T23:14:17.293Z,48.37
2018-02-08T23:16:46.936Z,49.60
2018-02-08T23:19:16.221Z,48.37
2018-02-08T23:21:45.070Z,47.30
2018-02-08T23:24:13.926Z,47.93
2018-02-08T23:26:42.770Z,50.13
2018-02-08T23:29:12.398Z,49.60
2018-02-08T23:31:42.490Z,46.20
2018-02-08T23:34:12.112Z,48.87
2018-02-08T23:36:40.960Z,46.83
2018-02-08T23:39:09.840Z,48.57
2018-02-08T23:41:38.975Z,46.33
2018-02-08T23:44:07.814Z,47.53
2018-02-08T23:46:36.672Z,47.60
2018-02-08T23:49:06.901Z,47.80
2018-02-08T23:51:35.941Z,45.87
2018-02-08T23:54:04.780Z,46.63
2018-02-08T23:56:33.647Z,44.70
2018-02-08T23:59:03.271Z,45.20
